Flight Track Log - Related Links

Times and Time Zones

All times are in EDT time to prevent confusion due to time zone crossing. See the JBU1427 flight status page for this flight to view local times or setup timezone preferences in your user account.


Time Position Orientation Groundspeed Altitude Reporting Facility
EDT Latitude Longitude Course Direction KTS MPH feet Rate Location/Type
Tue 07:34:00 PM 42.3667 -70.9833 259° West 140 161 1,000  Level KA90
Tue 07:34:36 PM 42.3667 -70.9333 90° East 163 188 1,900 1,950 Climbing KA90
Tue 07:35:20 PM 42.3775 -70.8883 72° East 189 217 3,600 2,229 Climbing Boston Center
Tue 07:36:21 PM 42.3883 -70.8036 80° East 252 290 5,800 2,878 Climbing Boston Center
Tue 07:37:00 PM 42.1233 -71.4703 235° Southwest  Level Estimated
Tue 07:37:23 PM 42.3242 -70.7228 137° Southeast 295 339 9,500  Level Boston Center
Tue 07:38:00 PM 42.1035 -71.6089 259° West  Level FlightAware Approximate
Tue 07:38:24 PM 42.2450 -70.7675 203° Southwest 333 383 10,500  Level Boston Center
Tue 07:39:00 PM 42.0768 -71.7459 259° West  Level FlightAware Approximate
Tue 07:39:26 PM 42.2061 -70.9058 249° West 364 419 13,100  Level Boston Center
Tue 07:40:27 PM 42.1875 -71.0431 260° West 370 426 15,500 2,244 Climbing Boston Center
Tue 07:41:29 PM 42.1658 -71.1819 258° West 378 435 17,700 2,000 Climbing Boston Center
Tue 07:42:30 PM 42.1464 -71.3247 260° West 387 445 19,600 1,756 Climbing Boston Center
Tue 07:43:32 PM 42.1258 -71.4739 260° West 397 457 21,300 1,610 Climbing Boston Center
Tue 07:44:33 PM 42.1019 -71.6250 258° West 408 470 22,900 1,415 Climbing Boston Center
Tue 07:45:35 PM 42.0797 -71.7794 259° West 413 475 24,200 1,317 Climbing Boston Center
Tue 07:46:36 PM 42.0558 -71.9383 259° West 425 489 25,600 1,220 Climbing Boston Center
Tue 07:47:38 PM 42.0319 -72.0983 259° West 428 493 26,700 976 Climbing Boston Center
Tue 07:48:39 PM 41.9786 -72.2503 245° Southwest 447 514 27,600 634 Climbing Boston Center
Tue 07:49:41 PM 41.9058 -72.3892 235° Southwest 448 516 28,000 195 Climbing Boston Center
Tue 07:50:42 PM 41.8328 -72.5297 235° Southwest 450 518 28,000  Level Boston Center
Tue 07:51:44 PM 41.7603 -72.6708 235° Southwest 452 520 28,000  Level Boston Center
Tue 07:52:45 PM 41.6731 -72.8372 235° Southwest 452 520 28,000  Level Boston Center
Tue 07:53:47 PM 41.6000 -72.9761 235° Southwest 452 520 28,000  Level Boston Center
Tue 07:54:48 PM 41.5317 -73.1075 235° Southwest 452 520 28,000  Level Boston Center
Tue 07:55:49 PM 41.4594 -73.2450 235° Southwest 453 521 28,000  Level Boston Center
Tue 07:56:51 PM 41.3869 -73.3803 234° Southwest 453 521 28,000  Level Boston Center
Tue 07:57:52 PM 41.3153 -73.5167 235° Southwest 453 521 28,000  Level Boston Center
Tue 07:58:54 PM 41.2400 -73.6514 233° Southwest 453 521 28,000  Level Boston Center
Tue 07:59:55 PM 41.1461 -73.8094 232° Southwest 454 522 28,000  Level Boston Center
Tue 08:00:56 PM 41.0683 -73.9397 232° Southwest 454 522 28,000  Level Boston Center
Tue 08:01:58 PM 40.9903 -74.0697 232° Southwest 454 522 28,000  Level Boston Center
Tue 08:02:59 PM 40.9133 -74.2000 232° Southwest 454 522 28,000  Level Boston Center
Tue 08:04:01 PM 40.8344 -74.3281 231° Southwest 453 521 28,000  Level Boston Center
Tue 08:05:02 PM 40.7500 -74.4678 231° Southwest 441 507 28,000  Level Boston Center
Tue 08:06:03 PM 40.6756 -74.5939 232° Southwest 439 505 28,000  Level Boston Center
Tue 08:07:05 PM 40.5997 -74.7153 231° Southwest 437 503 28,000  Level Boston Center
Tue 08:08:17 PM 40.4969 -74.8647 228° Southwest 447 514 28,000 -582 Level New York Center
Tue 08:09:19 PM 40.4178 -74.9800 228° Southwest 447 514 26,700 -1,800 Descending New York Center
Tue 08:10:17 PM 40.3367 -75.0922 227° Southwest 442 509 24,400 -2,250 Descending New York Center
Tue 08:11:19 PM 40.2642 -75.1936 227° Southwest 426 490 22,200 -2,115 Descending New York Center
Tue 08:12:19 PM 40.1889 -75.3031 228° Southwest 426 490 20,100 -1,600 Descending New York Center
Tue 08:13:19 PM 40.1011 -75.4194 225° Southwest 416 479 19,000 -559 Descending New York Center
Tue 08:14:17 PM 40.0261 -75.5228 227° Southwest 405 466 19,000  Level New York Center
Tue 08:15:18 PM 39.9511 -75.6261 227° Southwest 405 466 19,000 -1,041 Level New York Center
Tue 08:16:18 PM 39.8858 -75.7381 233° Southwest 400 460 16,900 -1,950 Descending New York Center
Tue 08:17:18 PM 39.8247 -75.8525 235° Southwest 389 448 15,100 -1,782 Descending New York Center
Tue 08:19:03 PM 39.7297 -76.0342 236° Southwest 368 423 12,000 -1,193 Descending Washington Center
Tue 08:20:04 PM 39.6772 -76.1344 236° Southwest 337 388 11,800 -714 Descending Washington Center
Tue 08:21:09 PM 39.6289 -76.2242 235° Southwest 309 356 10,500 -1,488 Descending Washington Center
Tue 08:22:09 PM 39.5764 -76.3253 236° Southwest 289 333 8,700 -1,548 Descending Washington Center
Tue 08:23:13 PM 39.5344 -76.4089 237° Southwest 281 323 7,300 -1,440 Descending Washington Center
Tue 08:24:14 PM 39.4944 -76.4925 238° Southwest 278 320 5,700 -1,104 Descending Washington Center
Tue 08:25:18 PM 39.4511 -76.5828 238° Southwest 275 316 5,000 -528 Descending Washington Center
Tue 08:26:19 PM 39.4131 -76.6653 239° Southwest 273 314 4,600 -492 Descending Washington Center
Tue 08:27:20 PM 39.3733 -76.7475 238° Southwest 272 313 4,000 -288 Descending Washington Center
Tue 08:28:24 PM 39.3347 -76.8303 239° Southwest 272 313 4,000 -145 Level Washington Center
Tue 08:29:24 PM 39.2919 -76.9089 235° Southwest 270 311 3,700 -629 Descending Washington Center
Tue 08:30:28 PM 39.2208 -76.8608 152° Southeast 254 292 2,700 -768 Descending Washington Center
Tue 08:31:29 PM 39.1922 -76.8056 124° Southeast 214 246 2,100 -756 Descending Washington Center
Tue 08:32:35 PM 39.1833 -76.7500 102° East 131 151 1,100 -773 Descending Potomac TRACON
Tue 08:33:41 PM 39.1833 -76.7000 90° East 126 145 400 -636 Descending Potomac TRACON

Login

Don't have an account? Register now (free) for customized features, flight alerts, and more!